Time;durP1;ratioP1;P1;durP2;ratioP2;P2;SDS_P1;SDS_P2;PMS_P1;PMS_P2;Temp;Humidity;BMP_temperature;BMP_pressure;BME280_temperature;BME280_humidity;BME280_pressure;Samples;Min_cycle;Max_cycle;Signal;HPM_P1;HPM_P2
2022/05/20 00:01:18;;;;;;;5.95;1.80;;;12.10;99.90;;;;;;5069559;28;20186;-81
2022/05/20 00:03:49;;;;;;;7.20;1.90;;;12.10;99.90;;;;;;5055831;28;20209;-80
2022/05/20 00:06:21;;;;;;;6.78;2.08;;;12.10;99.90;;;;;;5071610;28;20213;-79
2022/05/20 00:08:53;;;;;;;5.80;1.80;;;12.20;99.90;;;;;;5064364;28;20263;-80
2022/05/20 00:11:23;;;;;;;5.50;1.60;;;12.20;99.90;;;;;;5070985;28;20305;-78
2022/05/20 00:13:54;;;;;;;4.15;1.80;;;12.20;99.90;;;;;;5079208;28;20730;-78
2022/05/20 00:16:25;;;;;;;7.82;2.10;;;12.30;99.90;;;;;;5077094;28;20201;-79
2022/05/20 00:18:55;;;;;;;6.45;2.15;;;12.40;99.90;;;;;;5064407;28;20193;-79
2022/05/20 00:21:28;;;;;;;4.15;2.03;;;12.40;99.90;;;;;;5072812;28;20198;-83
2022/05/20 00:23:58;;;;;;;3.65;1.70;;;12.50;99.90;;;;;;5073952;28;20188;-79
2022/05/20 00:26:29;;;;;;;6.22;1.90;;;12.50;99.90;;;;;;5066582;28;20286;-78
2022/05/20 00:29:00;;;;;;;7.13;2.10;;;12.60;99.90;;;;;;5069486;28;20193;-82
2022/05/20 00:31:31;;;;;;;4.32;2.08;;;12.70;99.90;;;;;;5072565;28;20184;-84
2022/05/20 00:34:01;;;;;;;9.90;2.50;;;12.70;99.90;;;;;;5079728;28;20196;-83
2022/05/20 00:36:34;;;;;;;7.45;2.40;;;12.80;99.90;;;;;;5079117;28;20195;-82
2022/05/20 00:39:04;;;;;;;6.28;2.40;;;12.80;99.90;;;;;;5069970;28;20188;-82
2022/05/20 00:41:35;;;;;;;8.02;2.47;;;12.90;99.90;;;;;;5077870;28;20203;-83
2022/05/20 00:44:06;;;;;;;8.50;2.25;;;12.90;99.90;;;;;;5083152;28;20197;-83
2022/05/20 00:46:36;;;;;;;7.22;1.90;;;12.90;99.90;;;;;;5084988;28;20209;-81
2022/05/20 00:49:12;;;;;;;7.85;2.20;;;12.90;99.90;;;;;;5082655;28;20238;-82
2022/05/20 00:51:48;;;;;;;3.33;1.83;;;12.90;99.90;;;;;;5069382;28;20200;-82
2022/05/20 00:54:23;;;;;;;5.72;1.95;;;12.90;99.90;;;;;;5076531;28;20203;-83
2022/05/20 00:57:01;;;;;;;2.95;1.60;;;13.00;99.90;;;;;;5076097;28;20319;-83
2022/05/20 00:59:33;;;;;;;2.75;1.60;;;13.00;99.90;;;;;;5074431;28;20236;-82
2022/05/20 01:02:11;;;;;;;3.72;1.73;;;13.00;99.90;;;;;;5069697;28;20192;-83
2022/05/20 01:04:43;;;;;;;4.60;1.73;;;13.00;99.90;;;;;;5079305;28;20257;-81
2022/05/20 01:07:18;;;;;;;8.73;1.90;;;13.00;99.90;;;;;;5071872;28;20217;-80
2022/05/20 01:09:49;;;;;;;5.43;1.80;;;13.00;99.90;;;;;;5083176;28;20196;-82
2022/05/20 01:12:20;;;;;;;5.00;1.67;;;13.00;99.90;;;;;;5082015;28;20191;-81
2022/05/20 01:14:52;;;;;;;10.32;1.90;;;13.10;99.90;;;;;;5071107;28;20283;-81
2022/05/20 01:17:26;;;;;;;7.13;2.20;;;13.10;99.90;;;;;;5081736;28;20195;-86
2022/05/20 01:19:58;;;;;;;5.30;1.75;;;13.20;99.90;;;;;;5083922;28;20192;-81
2022/05/20 01:22:33;;;;;;;6.15;2.28;;;13.20;99.90;;;;;;5080835;28;20191;-85
2022/05/20 01:25:06;;;;;;;9.40;2.40;;;13.30;99.90;;;;;;5074114;28;20204;-82
2022/05/20 01:27:42;;;;;;;5.18;1.73;;;13.30;99.90;;;;;;5067461;28;20201;-83
2022/05/20 01:30:15;;;;;;;7.07;2.38;;;13.30;99.90;;;;;;5077349;28;20216;-82
2022/05/20 01:32:45;;;;;;;7.85;2.33;;;13.30;99.90;;;;;;5076311;28;20593;-82
2022/05/20 01:35:20;;;;;;;5.32;2.10;;;13.30;99.90;;;;;;5074172;28;20649;-82
2022/05/20 01:37:50;;;;;;;6.00;2.13;;;13.40;99.90;;;;;;5069609;28;20254;-81
2022/05/20 01:40:23;;;;;;;7.95;2.40;;;13.40;99.90;;;;;;5071648;28;20186;-80
2022/05/20 01:42:58;;;;;;;6.18;2.10;;;13.50;99.90;;;;;;5074001;28;20692;-82
2022/05/20 01:45:35;;;;;;;8.18;2.10;;;13.60;99.90;;;;;;5075524;28;20675;-80
2022/05/20 01:48:14;;;;;;;6.63;2.20;;;13.70;99.90;;;;;;5081322;28;20186;-80
2022/05/20 01:50:49;;;;;;;5.72;2.40;;;13.70;99.90;;;;;;5066077;28;20644;-83
2022/05/20 01:53:24;;;;;;;8.23;2.20;;;13.80;99.90;;;;;;5071034;28;20599;-79
2022/05/20 01:56:01;;;;;;;12.85;2.60;;;13.90;99.90;;;;;;5063984;28;20243;-78
2022/05/20 01:58:38;;;;;;;9.05;2.40;;;13.90;99.90;;;;;;5060401;28;20232;-80
2022/05/20 02:01:15;;;;;;;8.70;2.25;;;14.00;99.90;;;;;;5070745;28;20244;-80
2022/05/20 02:03:51;;;;;;;7.32;2.05;;;14.10;99.90;;;;;;5071190;28;20195;-81
2022/05/20 02:06:24;;;;;;;6.65;2.25;;;14.20;99.90;;;;;;5069817;28;20209;-78
2022/05/20 02:08:58;;;;;;;15.65;8.75;;;14.10;99.90;;;;;;5069965;28;20257;-80
2022/05/20 02:11:37;;;;;;;5.82;2.13;;;14.10;99.90;;;;;;5072593;28;20208;-80
2022/05/20 02:14:12;;;;;;;7.30;2.83;;;14.10;99.90;;;;;;5074122;28;20271;-78
2022/05/20 02:16:47;;;;;;;4.80;2.03;;;14.10;99.90;;;;;;5071396;28;20222;-79
2022/05/20 02:19:20;;;;;;;8.05;2.15;;;14.10;99.90;;;;;;5073543;28;20197;-79
2022/05/20 02:21:53;;;;;;;8.13;2.25;;;14.10;99.90;;;;;;5081920;28;20204;-78
2022/05/20 02:24:28;;;;;;;6.15;2.50;;;14.20;99.90;;;;;;5071695;28;20196;-77
2022/05/20 02:27:04;;;;;;;7.25;2.22;;;14.20;99.90;;;;;;5070009;28;20279;-78
2022/05/20 02:29:40;;;;;;;6.97;1.92;;;14.20;99.90;;;;;;5066607;28;20657;-85
2022/05/20 02:32:17;;;;;;;5.85;2.10;;;14.20;99.90;;;;;;5066796;28;20227;-83
2022/05/20 02:34:48;;;;;;;7.53;2.40;;;14.20;99.90;;;;;;5074742;28;20204;-79
2022/05/20 02:37:26;;;;;;;7.82;2.40;;;14.10;99.90;;;;;;5059913;28;20202;-81
2022/05/20 02:39:57;;;;;;;6.00;2.30;;;14.10;99.90;;;;;;5066277;28;20200;-82
2022/05/20 02:42:30;;;;;;;8.13;2.80;;;14.10;99.90;;;;;;5069509;28;20192;-83
2022/05/20 02:45:02;;;;;;;7.50;2.50;;;14.10;99.90;;;;;;5079972;28;20188;-84
2022/05/20 02:47:34;;;;;;;7.72;2.60;;;14.00;99.90;;;;;;5071448;28;20553;-88
2022/05/20 02:50:07;;;;;;;4.40;2.60;;;13.90;99.90;;;;;;5079514;28;20196;-83
2022/05/20 02:52:38;;;;;;;5.45;2.13;;;13.80;99.90;;;;;;5077759;28;20271;-78
2022/05/20 02:55:10;;;;;;;6.95;2.13;;;13.80;99.90;;;;;;5072964;28;20201;-77
2022/05/20 02:57:44;;;;;;;6.68;2.20;;;13.80;99.90;;;;;;5060692;28;20199;-77
2022/05/20 03:05:58;;;;;;;8.52;2.58;;;13.80;99.90;;;;;;5060601;28;20245;-80
2022/05/20 03:08:29;;;;;;;7.72;2.67;;;13.80;99.90;;;;;;5064189;28;20202;-82
2022/05/20 03:11:00;;;;;;;7.93;2.35;;;13.80;99.90;;;;;;5055721;28;20193;-82
2022/05/20 03:13:32;;;;;;;5.40;2.00;;;13.80;99.90;;;;;;5062528;28;20545;-83
2022/05/20 03:16:03;;;;;;;12.02;2.30;;;13.90;99.90;;;;;;5059917;28;20589;-79
2022/05/20 03:18:33;;;;;;;6.00;2.38;;;13.90;99.90;;;;;;5071062;28;20196;-79
2022/05/20 03:21:05;;;;;;;5.75;2.10;;;13.90;99.90;;;;;;5067564;28;20198;-81
2022/05/20 03:23:36;;;;;;;6.65;2.20;;;14.00;99.90;;;;;;5062971;28;20209;-81
2022/05/20 03:26:07;;;;;;;7.20;1.90;;;14.00;99.90;;;;;;5066723;28;20213;-78
2022/05/20 03:28:39;;;;;;;12.55;6.20;;;14.00;99.90;;;;;;5062219;28;20193;-81
2022/05/20 03:31:11;;;;;;;26.77;16.77;;;14.10;99.90;;;;;;5057471;28;20603;-78
2022/05/20 03:33:43;;;;;;;26.48;13.70;;;14.20;99.90;;;;;;5057610;28;20201;-82
2022/05/20 03:36:14;;;;;;;21.63;11.55;;;14.20;99.90;;;;;;5060959;28;20201;-79
2022/05/20 03:38:45;;;;;;;13.55;5.88;;;14.30;99.90;;;;;;5069702;28;20378;-79
2022/05/20 03:41:16;;;;;;;10.68;4.85;;;14.30;99.90;;;;;;5078121;28;20187;-84
2022/05/20 03:43:48;;;;;;;26.55;14.30;;;14.40;99.90;;;;;;5069376;28;20189;-87
2022/05/20 03:46:19;;;;;;;13.15;5.70;;;14.30;99.90;;;;;;5064211;28;20213;-79
2022/05/20 03:48:50;;;;;;;10.55;5.28;;;14.40;99.90;;;;;;5066486;28;20193;-84
2022/05/20 03:51:21;;;;;;;10.13;3.33;;;14.40;99.90;;;;;;5071473;28;20186;-83
2022/05/20 03:53:52;;;;;;;10.95;3.50;;;14.40;99.90;;;;;;5070271;28;20212;-84
2022/05/20 03:56:22;;;;;;;5.60;2.90;;;14.50;99.90;;;;;;5073969;28;20228;-85
2022/05/20 03:58:55;;;;;;;9.05;3.45;;;14.50;99.90;;;;;;5074598;28;20345;-87
2022/05/20 04:04:12;;;;;;;7.90;2.72;;;14.50;99.90;;;;;;5063150;28;20211;-88
2022/05/20 04:06:43;;;;;;;6.10;2.58;;;14.50;99.90;;;;;;5068320;28;20279;-89
2022/05/20 04:09:14;;;;;;;7.63;2.47;;;14.50;99.90;;;;;;5068136;28;20201;-88
2022/05/20 04:11:45;;;;;;;8.00;3.47;;;14.50;99.90;;;;;;5069115;28;20796;-83
2022/05/20 04:14:17;;;;;;;14.15;7.25;;;14.60;99.90;;;;;;5069422;28;20206;-84
2022/05/20 04:16:48;;;;;;;12.15;5.53;;;14.70;99.90;;;;;;5065184;28;20262;-85
2022/05/20 04:19:19;;;;;;;11.95;6.53;;;14.70;99.90;;;;;;5067856;28;20188;-85
2022/05/20 04:21:49;;;;;;;12.93;6.25;;;14.70;99.90;;;;;;5075108;28;20574;-85
2022/05/20 04:24:20;;;;;;;11.60;4.78;;;14.70;99.90;;;;;;5060645;28;20975;-84
2022/05/20 04:26:51;;;;;;;13.23;4.90;;;14.70;99.90;;;;;;5068032;28;20605;-85
2022/05/20 04:29:24;;;;;;;12.73;3.75;;;14.70;99.90;;;;;;5075098;28;20210;-87
2022/05/20 04:31:55;;;;;;;9.23;3.35;;;14.70;99.90;;;;;;5069356;28;21453;-88
2022/05/20 04:34:26;;;;;;;10.65;2.97;;;14.70;99.90;;;;;;5069146;28;20190;-84
2022/05/20 04:36:56;;;;;;;14.68;3.63;;;14.60;99.90;;;;;;5072367;28;20192;-83
2022/05/20 04:39:27;;;;;;;11.00;3.50;;;14.60;99.90;;;;;;5069483;28;20204;-82
2022/05/20 05:08:48;;;;;;;6.35;2.17;;;14.40;99.90;;;;;;4939517;28;20325;-82
2022/05/20 06:09:25;;;;;;;5.20;2.50;;;14.80;99.90;;;;;;4930220;29;20312;-83
2022/05/20 06:11:56;;;;;;;7.40;2.40;;;14.80;99.90;;;;;;4928863;29;20202;-83
2022/05/20 06:14:28;;;;;;;11.05;2.55;;;14.80;99.90;;;;;;4927874;29;20281;-83
2022/05/20 06:16:59;;;;;;;9.20;2.95;;;14.80;99.90;;;;;;4927145;29;20240;-83
2022/05/20 06:19:29;;;;;;;14.38;2.90;;;14.80;99.90;;;;;;4930201;29;20208;-83
2022/05/20 06:22:00;;;;;;;9.98;3.00;;;14.80;99.90;;;;;;4926999;29;20246;-82
2022/05/20 06:24:32;;;;;;;8.65;3.08;;;14.80;99.90;;;;;;4928561;29;20214;-83
2022/05/20 06:27:03;;;;;;;6.35;2.58;;;14.80;99.90;;;;;;4927196;29;20213;-81
2022/05/20 06:29:35;;;;;;;8.77;2.72;;;14.70;99.90;;;;;;4930090;29;20709;-81
2022/05/20 06:32:06;;;;;;;6.70;2.72;;;14.80;99.90;;;;;;4948082;28;20303;-82
2022/05/20 06:40:16;;;;;;;7.40;3.30;;;14.70;99.90;;;;;;5042575;28;20205;-82
2022/05/20 06:42:47;;;;;;;8.68;3.20;;;14.70;99.90;;;;;;5062738;28;20197;-80
2022/05/20 06:45:18;;;;;;;8.80;3.30;;;14.60;99.90;;;;;;5064017;28;20200;-82
2022/05/20 06:47:49;;;;;;;10.20;3.00;;;14.70;99.90;;;;;;5085251;28;20201;-82
2022/05/20 06:50:20;;;;;;;10.98;3.30;;;14.60;99.90;;;;;;5073245;28;20193;-81
2022/05/20 06:52:50;;;;;;;10.48;3.25;;;14.60;99.90;;;;;;5070836;28;20656;-82
2022/05/20 06:55:23;;;;;;;7.93;3.33;;;14.60;99.90;;;;;;5084809;28;20228;-81
2022/05/20 06:57:54;;;;;;;7.72;2.90;;;14.60;99.90;;;;;;5095074;28;20247;-80
2022/05/20 07:00:25;;;;;;;6.60;2.90;;;14.60;99.90;;;;;;5095546;28;20200;-81
2022/05/20 07:02:55;;;;;;;12.90;4.38;;;14.60;99.90;;;;;;5095228;28;20207;-80
2022/05/20 07:05:27;;;;;;;11.80;3.63;;;14.60;99.90;;;;;;5094907;28;20204;-81
2022/05/20 07:07:57;;;;;;;8.40;3.65;;;14.60;99.90;;;;;;5095097;28;20192;-81
2022/05/20 07:10:30;;;;;;;10.23;3.50;;;14.60;99.90;;;;;;5095114;28;20199;-80
2022/05/20 07:13:00;;;;;;;9.30;3.83;;;14.60;99.90;;;;;;5095186;28;20192;-80
2022/05/20 07:15:31;;;;;;;10.70;3.22;;;14.60;99.90;;;;;;5094702;28;20196;-80
2022/05/20 07:18:02;;;;;;;8.90;3.80;;;14.60;99.90;;;;;;5094971;28;20266;-81
2022/05/20 07:20:32;;;;;;;7.13;2.88;;;14.60;99.90;;;;;;5095182;28;20192;-83
2022/05/20 07:23:03;;;;;;;16.33;3.25;;;14.60;99.90;;;;;;5094921;28;20200;-80
2022/05/20 07:25:37;;;;;;;9.88;2.13;;;14.60;99.90;;;;;;5093378;28;20208;-80
2022/05/20 07:28:08;;;;;;;7.97;1.65;;;14.60;99.90;;;;;;5093948;28;20196;-80
2022/05/20 07:30:39;;;;;;;9.90;1.67;;;14.60;99.90;;;;;;5087662;28;20552;-84
2022/05/20 07:33:10;;;;;;;8.77;1.77;;;14.60;99.90;;;;;;5095076;28;20235;-82
2022/05/20 07:35:40;;;;;;;6.35;1.40;;;14.60;99.90;;;;;;5095080;28;20635;-81
2022/05/20 07:38:13;;;;;;;9.10;1.60;;;14.60;99.90;;;;;;5094684;28;20271;-83
2022/05/20 07:40:46;;;;;;;8.50;1.33;;;14.60;99.90;;;;;;5094806;28;20184;-85
2022/05/20 07:43:17;;;;;;;5.00;1.40;;;14.50;99.90;;;;;;5094663;28;20631;-84
2022/05/20 07:45:47;;;;;;;5.65;1.42;;;14.50;99.90;;;;;;5093792;28;20188;-84
2022/05/20 07:48:18;;;;;;;8.18;1.48;;;14.50;99.90;;;;;;5094522;28;20189;-84
2022/05/20 07:50:50;;;;;;;10.18;1.58;;;14.50;99.90;;;;;;5094865;28;20184;-84
2022/05/20 07:53:25;;;;;;;9.23;1.60;;;14.50;99.90;;;;;;5094097;28;20655;-85
2022/05/20 07:56:02;;;;;;;8.77;1.88;;;14.50;99.90;;;;;;5093610;28;20242;-84
2022/05/20 07:58:36;;;;;;;7.78;1.80;;;14.50;99.90;;;;;;5094273;28;20220;-91
2022/05/20 08:01:07;;;;;;;8.43;1.52;;;14.50;99.90;;;;;;5093268;28;20276;-83
2022/05/20 08:06:26;;;;;;;7.22;1.60;;;14.40;99.90;;;;;;5094567;28;20195;-87
2022/05/20 08:26:03;;;;;;;7.32;2.00;;;14.30;99.90;;;;;;4932693;29;20637;-87
2022/05/20 08:28:34;;;;;;;5.18;1.60;;;14.30;99.90;;;;;;4928027;28;20203;-87
2022/05/20 08:31:05;;;;;;;7.38;2.10;;;14.30;99.90;;;;;;4972961;28;20259;-85
2022/05/20 08:33:35;;;;;;;10.55;2.20;;;14.20;99.90;;;;;;5007203;28;20658;-81
2022/05/20 08:36:06;;;;;;;15.35;2.28;;;14.30;99.90;;;;;;5028829;28;20229;-88
2022/05/20 08:38:37;;;;;;;10.60;2.40;;;14.30;99.90;;;;;;5024245;28;20261;-86
2022/05/20 08:41:10;;;;;;;7.45;2.17;;;14.20;99.90;;;;;;5028748;28;20252;-85
2022/05/20 08:43:41;;;;;;;8.32;2.45;;;14.20;99.90;;;;;;5026333;28;20309;-87
2022/05/20 08:46:12;;;;;;;13.88;2.75;;;14.20;99.90;;;;;;5030549;28;20229;-87
2022/05/20 08:48:45;;;;;;;9.70;2.33;;;14.20;99.90;;;;;;5031023;28;20198;-85
2022/05/20 08:51:15;;;;;;;11.45;2.60;;;14.20;99.90;;;;;;5046302;28;20614;-87
2022/05/20 08:53:48;;;;;;;11.50;2.90;;;14.20;99.90;;;;;;5089572;28;20196;-85
2022/05/20 08:56:22;;;;;;;8.13;3.15;;;14.20;99.90;;;;;;5087974;28;20224;-86
2022/05/20 08:58:56;;;;;;;15.88;3.40;;;14.10;99.90;;;;;;5092629;28;20242;-85
2022/05/20 09:01:31;;;;;;;12.10;3.20;;;14.10;99.90;;;;;;5091950;28;20196;-85
2022/05/20 09:04:02;;;;;;;11.80;3.05;;;14.10;99.90;;;;;;5092754;28;20188;-85
2022/05/20 09:06:34;;;;;;;9.25;2.75;;;14.10;99.90;;;;;;5092410;28;20275;-83
2022/05/20 09:09:11;;;;;;;10.40;3.10;;;14.10;99.90;;;;;;5092225;28;20196;-84
2022/05/20 09:11:44;;;;;;;11.45;3.30;;;14.10;99.90;;;;;;5092215;28;20245;-85
2022/05/20 09:17:11;;;;;;;11.57;3.10;;;14.10;99.90;;;;;;5086196;28;20199;-84
2022/05/20 09:19:54;;;;;;;10.60;3.40;;;14.10;99.90;;;;;;5092963;28;20198;-84
2022/05/20 09:22:29;;;;;;;8.07;3.85;;;14.10;99.90;;;;;;5085417;28;20193;-84
2022/05/20 09:25:01;;;;;;;10.88;4.38;;;14.10;99.90;;;;;;5086324;28;20199;-81
2022/05/20 09:27:36;;;;;;;12.57;4.05;;;14.10;99.90;;;;;;5092083;28;20279;-82
2022/05/20 09:30:10;;;;;;;11.68;4.20;;;14.10;99.90;;;;;;5089379;28;20195;-83
2022/05/20 09:32:43;;;;;;;10.50;3.92;;;14.00;99.90;;;;;;5092581;28;20204;-84
2022/05/20 09:35:23;;;;;;;10.00;4.13;;;14.10;99.90;;;;;;5084235;28;20197;-83
2022/05/20 09:37:55;;;;;;;11.18;3.97;;;14.00;99.90;;;;;;5092083;28;20231;-83
2022/05/20 09:40:28;;;;;;;9.98;3.60;;;14.00;99.90;;;;;;5088243;28;20223;-80
2022/05/20 09:43:06;;;;;;;9.65;3.90;;;14.00;99.90;;;;;;5090664;28;20257;-84
2022/05/20 09:45:44;;;;;;;10.77;3.42;;;14.00;99.90;;;;;;5090420;28;20196;-85
2022/05/20 09:48:18;;;;;;;12.07;3.78;;;14.00;99.90;;;;;;5092574;28;20184;-83
2022/05/20 09:51:05;;;;;;;10.07;3.80;;;14.00;99.90;;;;;;5089164;28;20200;-80
2022/05/20 09:53:40;;;;;;;9.05;4.10;;;13.90;99.90;;;;;;5092692;28;20547;-79
2022/05/20 09:56:33;;;;;;;10.70;3.80;;;13.80;99.90;;;;;;5090371;28;20273;-80
2022/05/20 09:59:20;;;;;;;9.77;3.67;;;13.80;99.90;;;;;;5083146;28;20259;-80
2022/05/20 10:01:59;;;;;;;10.32;3.65;;;13.80;99.90;;;;;;5089097;28;20226;-80
2022/05/20 10:04:55;;;;;;;9.05;3.80;;;13.80;99.90;;;;;;5091364;28;20196;-80
2022/05/20 10:07:41;;;;;;;10.85;3.67;;;13.80;99.90;;;;;;5091075;28;20651;-81
2022/05/20 10:10:15;;;;;;;7.93;3.90;;;13.80;99.90;;;;;;5091835;28;20249;-80
2022/05/20 10:12:50;;;;;;;12.30;3.92;;;13.80;99.90;;;;;;5091626;28;20230;-82
2022/05/20 10:15:26;;;;;;;9.63;3.75;;;13.70;99.90;;;;;;5091487;28;20241;-80
2022/05/20 10:18:21;;;;;;;8.93;3.45;;;13.70;99.90;;;;;;5089398;28;20212;-81
2022/05/20 10:21:00;;;;;;;10.20;3.70;;;13.70;99.90;;;;;;5090209;28;20192;-80
2022/05/20 10:23:36;;;;;;;5.57;3.53;;;13.70;99.90;;;;;;5092289;28;20188;-80
2022/05/20 10:26:24;;;;;;;7.57;3.40;;;13.80;99.90;;;;;;5092298;28;20191;-79
2022/05/20 10:34:43;;;;;;;8.90;3.65;;;13.70;99.90;;;;;;5094203;28;20291;-80
2022/05/20 10:37:25;;;;;;;10.85;4.00;;;13.70;99.90;;;;;;5091270;28;20232;-79
2022/05/20 10:40:11;;;;;;;6.30;3.80;;;13.70;99.90;;;;;;5092981;28;20220;-79
2022/05/20 10:42:54;;;;;;;6.07;3.47;;;13.70;99.90;;;;;;5094070;28;20562;-80
2022/05/20 10:48:41;;;;;;;7.65;3.50;;;13.70;99.90;;;;;;5088717;28;20277;-85
2022/05/20 10:51:39;;;;;;;11.38;4.13;;;13.70;99.90;;;;;;5094567;28;20230;-80
2022/05/20 10:54:23;;;;;;;7.18;3.95;;;13.70;99.90;;;;;;5094927;28;20644;-82
2022/05/20 10:57:09;;;;;;;6.43;3.78;;;13.70;99.90;;;;;;5094141;28;20185;-80
2022/05/20 11:00:00;;;;;;;9.55;4.00;;;13.70;99.90;;;;;;5094682;28;20701;-82
2022/05/20 11:02:54;;;;;;;9.73;3.95;;;13.70;99.90;;;;;;5090885;28;20188;-84
2022/05/20 11:05:47;;;;;;;9.38;3.60;;;13.70;99.90;;;;;;5089196;28;20655;-85
2022/05/20 11:08:31;;;;;;;9.13;3.92;;;13.80;99.90;;;;;;5090225;28;20249;-83
2022/05/20 11:11:24;;;;;;;10.75;4.40;;;13.80;99.90;;;;;;5093423;28;20241;-81
2022/05/20 11:14:32;;;;;;;11.25;4.50;;;13.80;99.90;;;;;;5091812;28;20291;-82
2022/05/20 11:17:25;;;;;;;9.93;4.10;;;13.80;99.90;;;;;;5092695;28;20204;-86
2022/05/20 11:20:10;;;;;;;13.40;4.38;;;13.80;99.90;;;;;;5083408;28;20277;-84
2022/05/20 11:23:00;;;;;;;13.98;4.10;;;13.80;99.90;;;;;;5088065;28;20196;-83
2022/05/20 11:26:00;;;;;;;12.02;3.83;;;13.80;99.90;;;;;;5091089;28;20196;-81
2022/05/20 11:28:57;;;;;;;9.50;3.75;;;13.80;99.90;;;;;;5093273;28;20249;-84
2022/05/20 11:31:46;;;;;;;10.27;3.33;;;13.80;99.90;;;;;;5090634;28;20242;-84
2022/05/20 11:35:15;;;;;;;11.52;3.63;;;13.80;99.90;;;;;;5092626;28;20275;-82
2022/05/20 11:45:09;;;;;;;9.82;3.83;;;13.80;99.90;;;;;;5089212;28;20208;-83
2022/05/20 11:48:01;;;;;;;10.10;3.33;;;13.90;99.90;;;;;;5091361;28;20192;-81
2022/05/20 11:50:50;;;;;;;6.65;3.05;;;13.90;99.90;;;;;;5091696;28;20207;-81
2022/05/20 11:53:30;;;;;;;11.48;3.10;;;13.90;99.90;;;;;;5091076;28;20189;-81
2022/05/20 11:56:07;;;;;;;10.20;2.88;;;13.90;99.90;;;;;;5091790;28;20298;-82
2022/05/20 11:58:46;;;;;;;7.85;3.08;;;13.90;99.90;;;;;;5092954;28;20230;-81
2022/05/20 12:01:19;;;;;;;6.57;3.08;;;13.90;99.90;;;;;;5089483;28;20271;-83
2022/05/20 12:04:09;;;;;;;11.50;3.55;;;13.90;99.90;;;;;;5089922;28;20219;-86
2022/05/20 12:06:45;;;;;;;7.68;3.00;;;13.90;99.90;;;;;;5092111;28;20262;-83
2022/05/20 12:09:40;;;;;;;8.00;3.40;;;13.80;99.90;;;;;;5088974;28;20196;-84
2022/05/20 12:12:15;;;;;;;8.85;3.67;;;13.90;99.90;;;;;;5082949;28;20195;-82
2022/05/20 12:15:24;;;;;;;10.25;3.80;;;13.80;99.90;;;;;;5092583;28;20192;-85
2022/05/20 12:17:58;;;;;;;10.75;3.70;;;13.80;99.90;;;;;;5091591;28;20203;-85
2022/05/20 12:26:27;;;;;;;8.98;3.30;;;13.80;99.90;;;;;;5094674;28;20227;-84
2022/05/20 12:28:59;;;;;;;5.85;3.30;;;13.80;99.90;;;;;;5092656;28;20640;-84
2022/05/20 12:31:43;;;;;;;9.05;3.08;;;13.80;99.90;;;;;;5092280;28;20263;-84
2022/05/20 12:34:42;;;;;;;8.13;3.13;;;13.80;99.90;;;;;;5089341;28;20207;-84
2022/05/20 12:37:49;;;;;;;5.70;3.17;;;13.80;99.90;;;;;;5093361;28;20232;-85
2022/05/20 12:40:21;;;;;;;8.43;3.90;;;13.80;99.90;;;;;;5056672;28;20273;-84
2022/05/20 12:43:02;;;;;;;8.23;3.13;;;13.80;99.90;;;;;;5091714;28;20712;-82
2022/05/20 12:45:48;;;;;;;9.70;4.07;;;13.80;99.90;;;;;;5092726;28;20188;-84
2022/05/20 12:48:20;;;;;;;7.32;3.45;;;13.80;99.90;;;;;;5091029;28;20191;-84
2022/05/20 12:51:04;;;;;;;8.50;3.38;;;13.70;99.90;;;;;;5090057;28;20245;-81
2022/05/20 12:53:37;;;;;;;11.90;3.10;;;13.70;99.90;;;;;;5091527;28;20188;-85
2022/05/20 12:56:26;;;;;;;6.13;3.13;;;13.70;99.90;;;;;;5087876;28;20271;-84
2022/05/20 12:59:13;;;;;;;8.02;2.90;;;13.70;99.90;;;;;;5092338;28;20220;-87
2022/05/20 13:01:50;;;;;;;7.35;2.85;;;13.70;99.90;;;;;;5084603;28;20246;-88
2022/05/20 13:04:23;;;;;;;7.20;2.58;;;13.80;99.90;;;;;;5086694;28;20245;-88
2022/05/20 13:06:57;;;;;;;6.65;2.63;;;13.80;99.90;;;;;;5090424;28;20659;-88
2022/05/20 13:09:32;;;;;;;10.23;2.70;;;13.80;99.90;;;;;;5091369;28;20203;-88
2022/05/20 13:12:09;;;;;;;6.53;2.35;;;13.80;99.90;;;;;;5090002;28;20191;-88
2022/05/20 13:14:40;;;;;;;5.43;2.42;;;13.80;99.90;;;;;;5091256;28;20200;-86
2022/05/20 13:17:13;;;;;;;6.00;2.45;;;13.80;99.90;;;;;;5090717;28;20222;-83
2022/05/20 13:19:51;;;;;;;7.55;2.63;;;13.80;99.90;;;;;;5091294;28;20261;-85
2022/05/20 13:22:25;;;;;;;7.57;2.88;;;13.70;99.90;;;;;;5090991;28;20210;-78
2022/05/20 13:25:00;;;;;;;7.90;3.00;;;13.70;99.90;;;;;;5092155;28;20196;-78
2022/05/20 13:28:42;;;;;;;8.25;2.50;;;13.70;99.90;;;;;;5090954;28;20192;-81
2022/05/20 13:38:45;;;;;;;5.55;2.10;;;13.60;99.90;;;;;;5007334;28;20241;-78
2022/05/20 13:41:17;;;;;;;9.07;2.20;;;13.60;99.90;;;;;;5008076;28;20191;-81
2022/05/20 14:18:45;;;;;;;7.70;2.45;;;13.50;99.90;;;;;;4853759;29;20632;-87
2022/05/20 14:21:21;;;;;;;7.28;2.38;;;13.50;99.90;;;;;;4843256;29;20219;-87
2022/05/20 14:23:53;;;;;;;10.15;2.47;;;13.40;99.90;;;;;;4843541;29;20712;-87
2022/05/20 14:26:25;;;;;;;5.88;2.58;;;13.40;99.90;;;;;;4840477;29;20209;-86
2022/05/20 14:29:05;;;;;;;8.43;2.60;;;13.40;99.90;;;;;;4843108;29;20257;-88
2022/05/20 14:31:43;;;;;;;8.68;2.50;;;13.40;99.90;;;;;;4851508;29;20212;-87
2022/05/20 14:34:23;;;;;;;6.57;2.45;;;13.40;99.90;;;;;;4867986;29;20259;-87
2022/05/20 14:36:55;;;;;;;5.18;2.47;;;13.40;99.90;;;;;;4866104;29;20204;-87
2022/05/20 14:39:27;;;;;;;4.32;2.17;;;13.40;99.90;;;;;;4959126;28;20696;-87
2022/05/20 14:42:04;;;;;;;6.00;2.30;;;13.40;99.90;;;;;;4934081;28;20201;-86
2022/05/20 14:44:37;;;;;;;6.68;2.20;;;13.40;99.90;;;;;;4922062;29;20221;-86
2022/05/20 14:47:18;;;;;;;8.20;2.40;;;13.40;99.90;;;;;;4917737;29;20268;-87
2022/05/20 14:49:54;;;;;;;5.65;2.50;;;13.40;99.90;;;;;;4916543;29;20724;-87
2022/05/20 14:52:31;;;;;;;6.95;2.90;;;13.40;99.90;;;;;;4972415;28;20208;-86
2022/05/20 14:55:03;;;;;;;6.47;2.95;;;13.30;99.90;;;;;;5031036;28;20212;-85
2022/05/20 14:57:35;;;;;;;5.95;2.88;;;13.30;99.90;;;;;;5090758;28;20265;-86
2022/05/20 15:00:20;;;;;;;8.32;3.10;;;13.30;99.90;;;;;;5094612;28;20212;-87
2022/05/20 15:02:51;;;;;;;9.82;2.90;;;13.20;99.90;;;;;;5091950;28;20609;-86
2022/05/20 15:05:22;;;;;;;6.43;2.88;;;13.20;99.90;;;;;;5094948;28;20238;-87
2022/05/20 15:08:00;;;;;;;4.13;2.45;;;13.20;99.90;;;;;;5093709;28;20208;-85
2022/05/20 15:10:31;;;;;;;7.90;2.90;;;13.20;99.90;;;;;;5090200;28;20299;-85
2022/05/20 15:13:02;;;;;;;3.08;2.47;;;13.20;99.90;;;;;;5092265;28;20199;-85
2022/05/20 15:15:36;;;;;;;8.40;2.83;;;13.20;99.90;;;;;;5094349;28;20192;-85
2022/05/20 15:18:09;;;;;;;7.18;2.63;;;13.20;99.90;;;;;;5091847;28;20214;-85
2022/05/20 15:20:43;;;;;;;5.55;2.80;;;13.20;99.90;;;;;;5094183;28;20219;-85
2022/05/20 15:23:18;;;;;;;7.72;2.78;;;13.20;99.90;;;;;;5093831;28;20538;-84
2022/05/20 15:25:51;;;;;;;4.78;2.53;;;13.20;99.90;;;;;;5092266;28;20199;-86
2022/05/20 15:36:47;;;;;;;7.57;2.80;;;13.40;99.90;;;;;;5093451;28;20211;-87
2022/05/20 15:39:19;;;;;;;8.55;3.15;;;13.30;99.90;;;;;;5092431;28;20212;-85
2022/05/20 15:41:49;;;;;;;7.80;2.92;;;13.30;99.90;;;;;;5092412;28;20193;-85
2022/05/20 15:44:20;;;;;;;9.40;2.67;;;13.30;99.90;;;;;;5094133;28;20196;-85
2022/05/20 15:46:52;;;;;;;5.78;2.72;;;13.40;99.90;;;;;;5100163;28;20200;-85
2022/05/20 15:49:23;;;;;;;4.68;2.67;;;13.40;99.90;;;;;;5097450;28;20301;-87
2022/05/20 15:51:54;;;;;;;7.60;2.70;;;13.30;99.90;;;;;;5090506;28;20249;-86
2022/05/20 15:54:26;;;;;;;5.50;2.30;;;13.30;99.90;;;;;;5092894;28;20228;-84
2022/05/20 15:56:57;;;;;;;5.53;2.85;;;13.30;99.90;;;;;;5091198;28;20283;-83
2022/05/20 15:59:33;;;;;;;6.60;2.75;;;13.30;99.90;;;;;;5093702;28;20220;-83
2022/05/20 16:02:07;;;;;;;8.00;2.85;;;13.30;99.90;;;;;;5091848;28;20271;-85
2022/05/20 16:04:38;;;;;;;5.88;2.78;;;13.20;99.90;;;;;;5086920;28;20249;-84
2022/05/20 16:07:09;;;;;;;7.43;2.80;;;13.30;99.90;;;;;;5091636;28;20192;-84
2022/05/20 16:09:41;;;;;;;6.10;2.30;;;13.30;99.90;;;;;;5093645;28;20257;-84
2022/05/20 16:12:13;;;;;;;4.65;2.58;;;13.30;99.90;;;;;;5093423;28;20727;-83
2022/05/20 16:14:43;;;;;;;5.25;2.33;;;13.20;99.90;;;;;;5083939;28;20211;-84
2022/05/20 16:17:16;;;;;;;4.35;2.28;;;13.30;99.90;;;;;;5092884;28;20250;-84
2022/05/20 16:19:46;;;;;;;7.07;2.30;;;13.30;99.90;;;;;;5085117;28;20212;-84
2022/05/20 16:22:17;;;;;;;6.72;2.22;;;13.30;99.90;;;;;;5089733;28;20188;-84
2022/05/20 16:24:48;;;;;;;4.28;1.73;;;13.30;99.90;;;;;;5085528;28;20188;-82
2022/05/20 16:27:18;;;;;;;7.32;2.33;;;13.20;99.90;;;;;;5089831;28;20192;-83
2022/05/20 16:29:49;;;;;;;5.43;2.00;;;13.30;99.90;;;;;;5090709;28;20265;-84
2022/05/20 16:32:21;;;;;;;4.35;2.00;;;13.30;99.90;;;;;;5092308;28;20224;-80
2022/05/20 16:34:52;;;;;;;4.28;2.13;;;13.20;99.90;;;;;;5090332;28;20221;-82
2022/05/20 16:37:23;;;;;;;8.55;1.98;;;13.20;99.90;;;;;;5093491;28;20281;-82
2022/05/20 16:39:53;;;;;;;2.05;1.83;;;13.30;99.90;;;;;;5093087;28;20212;-82